createdAt,value
2019-05-20T00:00:21.780Z,20.37
2019-05-20T00:02:50.221Z,20.80
2019-05-20T00:05:18.640Z,18.53
2019-05-20T00:07:47.101Z,21.40
2019-05-20T00:10:15.596Z,21.03
2019-05-20T00:12:44.035Z,19.13
2019-05-20T00:15:12.789Z,20.90
2019-05-20T00:17:41.237Z,20.70
2019-05-20T00:20:09.818Z,19.67
2019-05-20T00:22:38.312Z,20.20
2019-05-20T00:25:07.588Z,18.50
2019-05-20T00:27:36.016Z,19.47
2019-05-20T00:30:06.192Z,18.67
2019-05-20T00:32:41.137Z,21.13
2019-05-20T00:35:06.837Z,19.33
2019-05-20T00:37:35.274Z,20.03
2019-05-20T00:40:06.356Z,19.63
2019-05-20T00:42:34.789Z,19.03
2019-05-20T00:45:03.226Z,15.43
2019-05-20T00:47:31.644Z,20.30
2019-05-20T00:50:00.101Z,20.83
2019-05-20T00:52:28.599Z,20.27
2019-05-20T00:54:57.084Z,20.47
2019-05-20T00:57:25.594Z,22.40
2019-05-20T00:59:54.044Z,22.17
2019-05-20T01:02:22.454Z,22.50
2019-05-20T01:04:50.882Z,23.27
2019-05-20T01:07:19.317Z,21.87
2019-05-20T01:09:47.751Z,23.37
2019-05-20T01:12:16.189Z,23.53
2019-05-20T01:14:44.613Z,24.97
2019-05-20T01:17:13.034Z,25.17
2019-05-20T01:19:41.512Z,21.67
2019-05-20T01:22:09.976Z,19.10
2019-05-20T01:24:38.421Z,24.37
2019-05-20T01:27:06.859Z,24.90
2019-05-20T01:29:35.308Z,24.07
2019-05-20T01:32:03.746Z,25.97
2019-05-20T01:34:32.183Z,25.40
2019-05-20T01:37:00.605Z,24.07
2019-05-20T01:39:29.065Z,26.10
2019-05-20T01:41:57.754Z,21.40
2019-05-20T01:44:26.242Z,25.07
2019-05-20T01:46:54.678Z,22.30
2019-05-20T01:49:23.098Z,28.20
2019-05-20T01:51:51.534Z,25.20
2019-05-20T01:54:19.959Z,25.10
2019-05-20T01:56:48.406Z,24.83
2019-05-20T01:59:16.826Z,24.60
2019-05-20T02:01:45.338Z,25.10
2019-05-20T02:04:13.772Z,22.60
2019-05-20T02:06:42.261Z,22.70
2019-05-20T02:09:11.312Z,22.42
2019-05-20T02:11:39.731Z,18.57
2019-05-20T02:14:09.808Z,20.23
2019-05-20T02:16:38.291Z,20.30
2019-05-20T02:19:06.741Z,19.93
2019-05-20T02:21:35.231Z,22.50
2019-05-20T02:24:03.667Z,21.30
2019-05-20T02:26:32.100Z,22.70
2019-05-20T02:29:00.527Z,23.90
2019-05-20T02:31:28.962Z,24.03
2019-05-20T02:33:57.401Z,24.57
2019-05-20T02:36:25.816Z,22.87
2019-05-20T02:38:54.256Z,24.00
2019-05-20T02:41:22.695Z,24.13
2019-05-20T02:43:51.188Z,25.07
2019-05-20T02:46:19.623Z,24.63
2019-05-20T02:48:48.061Z,24.57
2019-05-20T02:51:18.153Z,24.17
2019-05-20T02:53:46.648Z,24.17
2019-05-20T02:56:15.100Z,27.63
2019-05-20T02:58:43.540Z,25.20
2019-05-20T03:01:11.981Z,25.67
2019-05-20T03:03:40.981Z,24.30
2019-05-20T03:06:09.421Z,25.60
2019-05-20T03:08:37.853Z,26.40
2019-05-20T03:11:06.300Z,23.73
2019-05-20T03:13:34.720Z,24.90
2019-05-20T03:16:03.188Z,24.43
2019-05-20T03:18:31.681Z,24.00
2019-05-20T03:21:00.123Z,25.30
2019-05-20T03:23:28.624Z,22.90
2019-05-20T03:25:57.064Z,23.23
2019-05-20T03:28:25.510Z,23.67
2019-05-20T03:30:53.985Z,24.03
2019-05-20T03:33:22.426Z,23.67
2019-05-20T03:35:50.925Z,24.83
2019-05-20T03:38:19.361Z,25.43
2019-05-20T03:40:47.785Z,24.50
2019-05-20T03:43:19.601Z,24.63
2019-05-20T03:45:48.026Z,25.77
2019-05-20T03:48:16.462Z,25.40
2019-05-20T03:50:44.900Z,23.00
2019-05-20T03:53:13.487Z,23.37
2019-05-20T03:55:42.065Z,23.30
2019-05-20T03:58:13.237Z,22.77
2019-05-20T04:00:45.877Z,22.67
2019-05-20T04:03:14.912Z,22.80
2019-05-20T04:05:43.669Z,22.60
2019-05-20T04:08:12.154Z,22.17
2019-05-20T04:10:40.576Z,25.60
2019-05-20T04:13:09.008Z,23.20
2019-05-20T04:15:37.435Z,23.47
2019-05-20T04:18:05.879Z,22.13
2019-05-20T04:20:34.335Z,21.83
2019-05-20T04:23:02.839Z,22.60
2019-05-20T04:25:31.924Z,22.30
2019-05-20T04:28:00.343Z,22.37
2019-05-20T04:30:28.772Z,23.03
2019-05-20T04:32:57.220Z,23.93
2019-05-20T04:35:25.671Z,23.03
2019-05-20T04:37:54.096Z,24.00
2019-05-20T04:40:22.539Z,23.13
2019-05-20T04:42:50.956Z,21.87
2019-05-20T04:45:19.375Z,21.77
2019-05-20T04:47:47.830Z,25.20
2019-05-20T04:50:16.328Z,22.83
2019-05-20T04:52:44.795Z,23.63
2019-05-20T04:55:13.381Z,21.83
2019-05-20T04:57:41.821Z,22.47
2019-05-20T05:00:11.010Z,22.90
2019-05-20T05:02:43.237Z,23.10
2019-05-20T05:05:09.888Z,23.13
2019-05-20T05:07:38.348Z,22.73
2019-05-20T05:10:08.433Z,22.37
2019-05-20T05:12:37.100Z,23.83
2019-05-20T05:15:08.211Z,23.43
2019-05-20T05:17:36.932Z,23.30
2019-05-20T05:20:06.164Z,22.70
2019-05-20T05:22:34.674Z,24.07
2019-05-20T05:25:03.681Z,23.20
2019-05-20T05:27:32.117Z,22.60
2019-05-20T05:30:00.612Z,15.90
2019-05-20T05:32:41.669Z,19.37
2019-05-20T05:35:12.249Z,20.13
2019-05-20T05:37:40.669Z,21.80
2019-05-20T05:40:10.352Z,21.40
2019-05-20T05:42:38.766Z,22.83
2019-05-20T05:45:08.861Z,22.77
2019-05-20T05:47:37.278Z,19.60
2019-05-20T05:50:06.255Z,17.97
2019-05-20T05:52:34.763Z,23.20
2019-05-20T05:55:03.650Z,21.33
2019-05-20T05:57:32.095Z,23.50
2019-05-20T06:00:00.549Z,21.00
2019-05-20T06:02:28.993Z,23.93
2019-05-20T06:04:57.421Z,21.07
2019-05-20T06:07:25.880Z,23.80
2019-05-20T06:09:54.317Z,23.57
2019-05-20T06:12:22.761Z,23.40
2019-05-20T06:14:51.329Z,24.37
2019-05-20T06:17:19.780Z,23.17
2019-05-20T06:19:48.213Z,23.07
2019-05-20T06:22:16.719Z,20.80
2019-05-20T06:24:45.146Z,23.23
2019-05-20T06:27:13.585Z,17.80
2019-05-20T06:29:42.008Z,21.47
2019-05-20T06:32:10.465Z,22.57
2019-05-20T06:34:41.747Z,23.67
2019-05-20T06:37:23.001Z,23.50
2019-05-20T06:39:51.470Z,24.27
2019-05-20T06:42:19.968Z,22.27
2019-05-20T06:44:52.950Z,23.23
2019-05-20T06:47:18.936Z,24.33
2019-05-20T06:49:47.418Z,22.43
2019-05-20T06:52:15.858Z,22.27
2019-05-20T06:54:44.308Z,22.70
2019-05-20T06:57:12.948Z,23.50
2019-05-20T06:59:41.462Z,21.87
2019-05-20T07:02:09.892Z,21.40
2019-05-20T07:04:38.327Z,20.00
2019-05-20T07:07:19.977Z,22.20
2019-05-20T07:09:36.938Z,23.50
2019-05-20T07:12:05.389Z,21.77
2019-05-20T07:14:33.856Z,23.37
2019-05-20T07:17:02.359Z,16.00
2019-05-20T07:19:30.846Z,22.90
2019-05-20T07:21:59.283Z,23.43
2019-05-20T07:24:27.734Z,24.17
2019-05-20T07:26:56.166Z,23.37
2019-05-20T07:29:24.621Z,16.47
2019-05-20T07:31:53.055Z,19.80
2019-05-20T07:34:21.640Z,21.33
2019-05-20T07:37:02.603Z,21.93
2019-05-20T07:39:20.375Z,22.30
2019-05-20T07:41:48.826Z,22.97
2019-05-20T07:44:17.254Z,20.70
2019-05-20T07:46:45.893Z,23.93
2019-05-20T07:49:15.351Z,19.03
2019-05-20T07:51:45.204Z,22.00
2019-05-20T07:54:14.792Z,24.40
2019-05-20T07:56:46.885Z,24.43
2019-05-20T07:59:17.523Z,19.47
2019-05-20T08:01:45.957Z,21.07
2019-05-20T08:04:14.406Z,20.47
2019-05-20T08:06:42.919Z,22.90
2019-05-20T08:09:11.340Z,25.20
2019-05-20T08:11:39.802Z,20.80
2019-05-20T08:14:08.557Z,26.37
2019-05-20T08:16:37.045Z,19.47
2019-05-20T08:19:05.502Z,25.27
2019-05-20T08:21:33.997Z,24.33
2019-05-20T08:24:02.799Z,24.40
2019-05-20T08:26:31.316Z,25.03
2019-05-20T08:28:59.787Z,22.03
2019-05-20T08:31:28.293Z,24.77
2019-05-20T08:33:56.818Z,22.20
2019-05-20T08:36:25.359Z,24.40
2019-05-20T08:38:53.791Z,20.97
2019-05-20T08:41:22.317Z,18.10
2019-05-20T08:43:50.839Z,23.47
2019-05-20T08:46:19.297Z,24.33
2019-05-20T08:48:47.794Z,24.63
2019-05-20T08:51:16.239Z,20.27
2019-05-20T08:53:44.665Z,21.47
2019-05-20T08:56:13.120Z,21.80
2019-05-20T08:58:41.572Z,26.13
2019-05-20T09:01:11.902Z,20.50
2019-05-20T09:03:40.160Z,23.67
2019-05-20T09:06:08.594Z,23.23
2019-05-20T09:08:37.029Z,24.03
2019-05-20T09:11:05.582Z,23.90
2019-05-20T09:13:34.026Z,21.67
2019-05-20T09:16:02.484Z,22.33
2019-05-20T09:18:30.911Z,22.10
2019-05-20T09:20:59.425Z,22.07
2019-05-20T09:23:27.940Z,21.27
2019-05-20T09:25:56.443Z,19.90
2019-05-20T09:28:24.945Z,18.73
2019-05-20T09:30:53.738Z,20.60
2019-05-20T09:33:22.571Z,17.17
2019-05-20T09:35:51.013Z,20.43
2019-05-20T09:38:21.316Z,19.17
2019-05-20T09:40:50.009Z,20.77
2019-05-20T09:43:18.583Z,21.77
2019-05-20T09:45:47.029Z,18.33
2019-05-20T09:48:15.532Z,20.90
2019-05-20T09:50:43.995Z,22.97
2019-05-20T09:53:12.429Z,22.07
2019-05-20T09:55:40.936Z,21.00
2019-05-20T09:58:09.525Z,20.17
2019-05-20T10:00:37.955Z,14.30
2019-05-20T10:03:07.510Z,18.50
2019-05-20T10:05:37.559Z,19.77
2019-05-20T10:08:06.510Z,20.13
2019-05-20T10:10:35.063Z,23.40
2019-05-20T10:13:03.519Z,18.93
2019-05-20T10:15:32.018Z,20.70
2019-05-20T10:18:00.468Z,22.60
2019-05-20T10:20:28.893Z,20.67
2019-05-20T10:22:57.349Z,20.60
2019-05-20T10:25:25.777Z,19.00
2019-05-20T10:27:57.474Z,20.00
2019-05-20T10:30:24.723Z,19.13
2019-05-20T10:32:53.162Z,20.73
2019-05-20T10:35:21.602Z,13.93
2019-05-20T10:37:50.034Z,20.07
2019-05-20T10:40:18.963Z,19.93
2019-05-20T10:42:47.493Z,21.17
2019-05-20T10:45:16.026Z,21.07
2019-05-20T10:47:44.466Z,10.60
2019-05-20T10:50:13.428Z,17.50
2019-05-20T10:52:41.867Z,20.80
2019-05-20T10:55:10.540Z,19.77
2019-05-20T10:57:38.963Z,17.97
2019-05-20T11:00:08.480Z,21.67
2019-05-20T11:02:36.915Z,22.67
2019-05-20T11:05:06.771Z,21.40
2019-05-20T11:07:35.239Z,18.37
2019-05-20T11:10:06.087Z,20.43
2019-05-20T11:12:34.503Z,19.23
2019-05-20T11:15:03.455Z,19.10
2019-05-20T11:17:31.948Z,20.10
2019-05-20T11:20:00.416Z,19.80
2019-05-20T11:22:28.831Z,18.97
2019-05-20T11:24:57.255Z,20.17
2019-05-20T11:27:25.724Z,22.27
2019-05-20T11:29:54.230Z,21.43
2019-05-20T11:32:22.684Z,20.53
2019-05-20T11:34:51.154Z,17.63
2019-05-20T11:37:19.648Z,21.20
2019-05-20T11:39:48.148Z,19.17
2019-05-20T11:42:16.668Z,19.97
2019-05-20T11:44:45.166Z,18.73
2019-05-20T11:47:13.609Z,18.70
2019-05-20T11:49:42.024Z,16.37
2019-05-20T11:52:10.528Z,17.77
2019-05-20T11:54:38.993Z,19.60
2019-05-20T11:57:07.762Z,19.67
2019-05-20T11:59:36.203Z,16.27
2019-05-20T12:02:04.708Z,17.10
2019-05-20T12:04:33.245Z,19.30
2019-05-20T12:07:01.664Z,19.50
2019-05-20T12:09:30.090Z,17.53
2019-05-20T12:11:58.535Z,19.90
2019-05-20T12:14:26.960Z,16.40
2019-05-20T12:16:55.393Z,18.27
2019-05-20T12:19:23.807Z,20.70
2019-05-20T12:21:52.255Z,21.10
2019-05-20T12:24:20.686Z,18.30
2019-05-20T12:26:49.157Z,17.90
2019-05-20T12:29:17.602Z,17.97
2019-05-20T12:31:46.111Z,18.13
2019-05-20T12:34:14.527Z,17.63
2019-05-20T12:36:42.972Z,20.80
2019-05-20T12:39:11.408Z,18.80
2019-05-20T12:41:39.860Z,19.33
2019-05-20T12:44:12.630Z,18.30
2019-05-20T12:46:38.531Z,17.87
2019-05-20T12:49:07.126Z,14.50
2019-05-20T12:51:35.701Z,16.20
2019-05-20T12:54:04.204Z,19.03
2019-05-20T12:56:32.757Z,18.90
2019-05-20T12:59:01.336Z,17.27
2019-05-20T13:01:29.864Z,17.37
2019-05-20T13:03:58.289Z,19.30
2019-05-20T13:06:26.728Z,19.37
2019-05-20T13:08:55.153Z,18.23
2019-05-20T13:11:23.598Z,18.03
2019-05-20T13:13:52.042Z,16.70
2019-05-20T13:16:20.489Z,18.07
2019-05-20T13:18:56.195Z,19.10
2019-05-20T13:21:19.074Z,18.23
2019-05-20T13:23:49.080Z,19.30
2019-05-20T13:26:17.773Z,21.43
2019-05-20T13:28:46.265Z,20.10
2019-05-20T13:31:14.713Z,18.57
2019-05-20T13:33:43.130Z,19.10
2019-05-20T13:36:11.568Z,20.30
2019-05-20T13:38:39.982Z,19.97
2019-05-20T13:41:08.434Z,17.53
2019-05-20T13:43:36.892Z,18.40
2019-05-20T13:46:05.311Z,17.53
2019-05-20T13:48:33.757Z,16.60
2019-05-20T13:51:02.279Z,18.70
2019-05-20T13:53:30.830Z,19.60
2019-05-20T13:55:59.311Z,16.80
2019-05-20T13:58:27.745Z,20.70
2019-05-20T14:00:56.192Z,19.70
2019-05-20T14:03:24.640Z,19.70
2019-05-20T14:05:53.083Z,19.77
2019-05-20T14:08:21.524Z,19.40
2019-05-20T14:11:03.582Z,19.63
2019-05-20T14:13:20.107Z,18.20
2019-05-20T14:15:48.538Z,19.33
2019-05-20T14:18:16.980Z,19.20
2019-05-20T14:20:45.434Z,19.80
2019-05-20T14:23:13.919Z,16.57
2019-05-20T14:25:42.343Z,19.30
2019-05-20T14:28:10.803Z,19.77
2019-05-20T14:30:39.242Z,20.47
2019-05-20T14:33:07.660Z,17.20
2019-05-20T14:35:36.100Z,19.30
2019-05-20T14:38:04.524Z,18.63
2019-05-20T14:40:32.983Z,16.50
2019-05-20T14:43:01.436Z,18.67
2019-05-20T14:45:29.868Z,19.57
2019-05-20T14:47:58.305Z,18.87
2019-05-20T14:50:26.756Z,18.27
2019-05-20T14:52:55.207Z,17.37
2019-05-20T14:55:23.683Z,16.07
2019-05-20T14:57:52.181Z,15.70
2019-05-20T15:00:21.027Z,16.10
2019-05-20T15:02:49.481Z,18.40
2019-05-20T15:05:18.013Z,19.97
2019-05-20T15:07:46.449Z,16.97
2019-05-20T15:10:15.834Z,14.27
2019-05-20T15:12:44.269Z,19.50
2019-05-20T15:15:13.533Z,18.40
2019-05-20T15:17:42.025Z,18.87
2019-05-20T15:20:10.895Z,18.80
2019-05-20T15:22:39.310Z,19.43
2019-05-20T15:25:08.591Z,19.40
2019-05-20T15:27:37.013Z,18.63
2019-05-20T15:30:08.484Z,21.57
2019-05-20T15:32:36.909Z,16.50
2019-05-20T15:35:06.072Z,20.13
2019-05-20T15:37:34.498Z,20.10
2019-05-20T15:40:02.940Z,17.30
2019-05-20T15:42:31.583Z,17.47
2019-05-20T15:45:00.096Z,17.37
2019-05-20T15:47:28.534Z,17.90
2019-05-20T15:49:56.970Z,18.90
2019-05-20T15:52:25.403Z,16.23
2019-05-20T15:54:53.849Z,13.50
2019-05-20T15:57:22.354Z,17.13
2019-05-20T15:59:50.773Z,15.60
2019-05-20T16:02:19.277Z,18.13
2019-05-20T16:04:47.724Z,14.30
2019-05-20T16:07:16.142Z,16.80
2019-05-20T16:09:44.579Z,17.87
2019-05-20T16:12:13.042Z,15.40
2019-05-20T16:14:41.519Z,17.27
2019-05-20T16:17:10.122Z,13.03
2019-05-20T16:19:38.579Z,16.37
2019-05-20T16:22:07.073Z,15.20
2019-05-20T16:24:35.491Z,14.47
2019-05-20T16:27:03.994Z,15.93
2019-05-20T16:29:32.412Z,16.47
2019-05-20T16:32:00.911Z,14.57
2019-05-20T16:34:29.339Z,16.50
2019-05-20T16:36:58.139Z,13.60
2019-05-20T16:39:26.553Z,16.53
2019-05-20T16:41:55.007Z,17.23
2019-05-20T16:44:23.432Z,16.87
2019-05-20T16:46:51.936Z,15.80
2019-05-20T16:49:20.357Z,16.20
2019-05-20T16:51:48.790Z,15.73
2019-05-20T16:54:17.285Z,16.47
2019-05-20T16:56:45.704Z,17.70
2019-05-20T16:59:14.155Z,18.60
2019-05-20T17:01:46.195Z,17.70
2019-05-20T17:04:12.842Z,18.13
2019-05-20T17:06:41.368Z,15.43
2019-05-20T17:09:09.876Z,16.40
2019-05-20T17:11:38.339Z,18.30
2019-05-20T17:14:09.993Z,17.10
2019-05-20T17:16:36.986Z,16.67
2019-05-20T17:19:05.489Z,16.37
2019-05-20T17:21:33.906Z,16.10
2019-05-20T17:24:02.395Z,20.10
2019-05-20T17:26:30.816Z,14.10
2019-05-20T17:28:59.247Z,18.10
2019-05-20T17:31:30.635Z,18.60
2019-05-20T17:33:57.991Z,18.20
2019-05-20T17:36:26.430Z,16.90
2019-05-20T17:38:54.847Z,18.47
2019-05-20T17:41:23.406Z,19.10
2019-05-20T17:43:52.309Z,20.30
2019-05-20T17:46:20.820Z,20.67
2019-05-20T17:48:49.573Z,20.37
2019-05-20T17:51:18.280Z,21.00
2019-05-20T17:53:46.748Z,19.53
2019-05-20T17:56:15.251Z,18.27
2019-05-20T17:58:43.747Z,20.40
2019-05-20T18:01:15.474Z,21.93
2019-05-20T18:03:42.464Z,19.70
2019-05-20T18:06:10.867Z,18.60
2019-05-20T18:08:40.949Z,20.50
2019-05-20T18:11:09.393Z,18.80
2019-05-20T18:13:37.854Z,17.73
2019-05-20T18:16:06.273Z,19.47
2019-05-20T18:18:34.713Z,15.47
2019-05-20T18:21:03.151Z,17.20
2019-05-20T18:23:32.149Z,19.17
2019-05-20T18:26:03.436Z,19.23
2019-05-20T18:28:30.709Z,16.93
2019-05-20T18:30:59.165Z,20.70
2019-05-20T18:33:27.594Z,17.73
2019-05-20T18:35:56.027Z,22.47
2019-05-20T18:38:24.450Z,22.90
2019-05-20T18:40:52.897Z,23.40
2019-05-20T18:43:21.320Z,23.40
2019-05-20T18:45:49.753Z,20.93
2019-05-20T18:48:18.200Z,22.20
2019-05-20T18:50:46.620Z,21.93
2019-05-20T18:53:15.113Z,23.60
2019-05-20T18:55:43.539Z,22.50
2019-05-20T18:58:11.991Z,24.17
2019-05-20T19:00:40.486Z,22.07
2019-05-20T19:03:08.902Z,22.30
2019-05-20T19:05:37.366Z,21.83
2019-05-20T19:08:06.052Z,25.10
2019-05-20T19:10:34.490Z,21.13
2019-05-20T19:13:02.939Z,25.87
2019-05-20T19:15:31.794Z,24.37
2019-05-20T19:18:00.237Z,21.47
2019-05-20T19:20:28.673Z,22.80
2019-05-20T19:22:57.106Z,23.47
2019-05-20T19:25:36.929Z,22.93
2019-05-20T19:27:55.694Z,21.20
2019-05-20T19:30:24.214Z,24.07
2019-05-20T19:32:52.631Z,22.70
2019-05-20T19:35:21.063Z,22.07
2019-05-20T19:37:49.485Z,19.50
2019-05-20T19:40:18.762Z,19.60
2019-05-20T19:42:47.183Z,20.07
2019-05-20T19:45:15.711Z,22.47
2019-05-20T19:47:44.138Z,20.57
2019-05-20T19:50:12.942Z,20.00
2019-05-20T19:52:41.433Z,22.27
2019-05-20T19:55:10.207Z,20.70
2019-05-20T19:57:38.619Z,20.10
2019-05-20T20:00:08.515Z,19.87
2019-05-20T20:02:36.935Z,20.03
2019-05-20T20:05:07.316Z,22.50
2019-05-20T20:07:35.741Z,20.70
2019-05-20T20:10:05.043Z,20.07
2019-05-20T20:12:33.457Z,21.80
2019-05-20T20:15:01.897Z,21.40
2019-05-20T20:17:30.327Z,20.57
2019-05-20T20:19:58.778Z,21.90
2019-05-20T20:22:27.202Z,23.30
2019-05-20T20:24:55.629Z,22.30
2019-05-20T20:27:24.086Z,22.70
2019-05-20T20:29:52.638Z,19.50
2019-05-20T20:32:36.809Z,19.23
2019-05-20T20:34:51.241Z,21.77
2019-05-20T20:37:19.668Z,23.30
2019-05-20T20:39:48.101Z,17.40
2019-05-20T20:42:16.527Z,21.60
2019-05-20T20:44:44.948Z,22.10
2019-05-20T20:47:13.391Z,19.70
2019-05-20T20:49:41.818Z,20.07
2019-05-20T20:52:10.449Z,25.80
2019-05-20T20:54:39.017Z,20.87
2019-05-20T20:57:07.461Z,24.30
2019-05-20T20:59:35.901Z,20.77
2019-05-20T21:02:04.414Z,24.40
2019-05-20T21:04:32.889Z,23.90
2019-05-20T21:07:01.332Z,24.53
2019-05-20T21:09:29.811Z,25.20
2019-05-20T21:11:58.306Z,21.60
2019-05-20T21:14:26.740Z,24.50
2019-05-20T21:16:55.177Z,23.90
2019-05-20T21:19:23.597Z,21.73
2019-05-20T21:21:52.045Z,24.60
2019-05-20T21:24:20.468Z,24.27
2019-05-20T21:26:48.909Z,18.70
2019-05-20T21:29:17.339Z,20.77
2019-05-20T21:31:45.769Z,21.53
2019-05-20T21:34:14.201Z,21.70
2019-05-20T21:36:47.956Z,23.60
2019-05-20T21:39:12.793Z,24.70
2019-05-20T21:41:41.217Z,21.23
2019-05-20T21:44:09.649Z,18.37
2019-05-20T21:46:38.078Z,20.27
2019-05-20T21:49:06.517Z,14.40
2019-05-20T21:51:35.338Z,18.87
2019-05-20T21:54:03.769Z,19.87
2019-05-20T21:56:32.194Z,19.53
2019-05-20T21:59:00.630Z,21.80
2019-05-20T22:01:29.122Z,21.80
2019-05-20T22:03:57.553Z,20.27
2019-05-20T22:06:25.974Z,21.17
2019-05-20T22:08:54.422Z,14.20
2019-05-20T22:11:22.841Z,15.40
2019-05-20T22:13:51.592Z,20.00
2019-05-20T22:16:20.036Z,18.67
2019-05-20T22:18:48.452Z,19.10
2019-05-20T22:21:18.525Z,15.90
2019-05-20T22:23:54.546Z,18.63
2019-05-20T22:26:23.031Z,18.27
2019-05-20T22:28:51.490Z,15.87
2019-05-20T22:31:19.974Z,17.30
2019-05-20T22:33:48.750Z,16.30
2019-05-20T22:36:17.182Z,18.10
2019-05-20T22:38:45.926Z,19.20
2019-05-20T22:41:14.346Z,16.93
2019-05-20T22:43:42.776Z,17.10
2019-05-20T22:46:11.315Z,18.40
2019-05-20T22:48:39.842Z,16.50
2019-05-20T22:51:08.287Z,16.30
2019-05-20T22:53:36.723Z,12.67
2019-05-20T22:56:05.226Z,15.27
2019-05-20T22:58:33.648Z,17.00
2019-05-20T23:01:02.074Z,9.40
2019-05-20T23:03:30.836Z,13.57
2019-05-20T23:05:59.292Z,13.20
2019-05-20T23:08:27.698Z,15.77
2019-05-20T23:10:56.154Z,17.80
2019-05-20T23:13:24.636Z,13.90
2019-05-20T23:15:55.644Z,15.23
2019-05-20T23:18:23.244Z,14.73
2019-05-20T23:20:51.728Z,15.20
2019-05-20T23:23:20.443Z,17.07
2019-05-20T23:25:48.860Z,13.70
2019-05-20T23:28:17.310Z,14.80
2019-05-20T23:30:45.731Z,17.00
2019-05-20T23:33:14.165Z,15.60
2019-05-20T23:35:42.585Z,13.10
2019-05-20T23:38:11.036Z,14.70
2019-05-20T23:40:39.453Z,16.10
2019-05-20T23:43:07.893Z,14.10
2019-05-20T23:45:36.330Z,15.33
2019-05-20T23:48:05.097Z,15.80
2019-05-20T23:50:33.534Z,12.53
2019-05-20T23:53:01.976Z,17.73
2019-05-20T23:55:30.390Z,17.13
2019-05-20T23:57:58.838Z,16.63
